Main page
METAR-TAF:

METAR-TAF

Airports :

Gage Airport

Gage, Oklahoma, United States

latitude: 36-17-48N, longitude: 099-46-08W, elevation: 2221 ft

Current weather observation

The report was made 47 minutes ago, at 15:53 UTC
Wind 14 mph from the South/Southwest with gusts up to 23 mph
Temperature 81°F
Humidity 54%
Pressure 29.95 in. Hg
Visibility: 10 miles
Clear sky

METAR: KGAG 151553Z AUTO 21012G20KT 10SM CLR 27/17 A2995 RMK AO2 SLP111 T02720172

Time: 11:40 (16:40 UTC)


TAF: missing

Weather observations and forecasts of more than 4000 airports (METAR and TAF reports).

The available stations are represented by yellow and red dots on the map.

Hover mouse over dot to see the name of the station.

Then click to see weather observations and forecasts.

To change the map : click on the green buttons with a black cross to zoom in, on the green button with a dash to zoom out, or on the green arrows for adjacent maps.


METAR-TAF: